Time;durP1;ratioP1;P1;durP2;ratioP2;P2;SDS_P1;SDS_P2;PMS_P1;PMS_P2;Temp;Humidity;BMP_temperature;BMP_pressure;BME280_temperature;BME280_humidity;BME280_pressure;Samples;Min_cycle;Max_cycle;Signal;HPM_P1;HPM_P2
2024/01/20 00:01:57;;;;;;;2.75;2.55;;;1.40;60.90;;;;;;5068343;28;20149;-65
2024/01/20 00:04:26;;;;;;;3.20;2.13;;;1.40;60.90;;;;;;5066485;27;20382;-63
2024/01/20 00:06:55;;;;;;;23.77;8.70;;;1.40;60.90;;;;;;5074397;28;20052;-64
2024/01/20 00:09:24;;;;;;;5.53;2.85;;;1.40;60.90;;;;;;5072794;28;20113;-65
2024/01/20 00:12:07;;;;;;;2.85;1.65;;;1.30;60.80;;;;;;5078448;27;20059;-65
2024/01/20 00:14:35;;;;;;;10.88;4.05;;;1.30;60.80;;;;;;5087981;28;20048;-64
2024/01/20 00:17:04;;;;;;;7.97;2.72;;;1.30;60.80;;;;;;5086349;28;20167;-64
2024/01/20 00:19:47;;;;;;;38.53;6.95;;;1.20;60.80;;;;;;5067894;28;20121;-64
2024/01/20 00:22:17;;;;;;;2.85;2.15;;;1.20;61.50;;;;;;5064078;28;22186;-66
2024/01/20 00:24:45;;;;;;;44.80;5.80;;;1.20;60.90;;;;;;5064275;28;20049;-65
2024/01/20 00:27:15;;;;;;;4.38;2.17;;;1.20;60.90;;;;;;5072529;28;20052;-65
2024/01/20 00:29:44;;;;;;;2.38;2.17;;;1.10;60.80;;;;;;5071406;28;20064;-67
2024/01/20 00:32:12;;;;;;;1.60;1.50;;;1.20;60.80;;;;;;5068056;28;20059;-64
2024/01/20 00:34:41;;;;;;;3.53;2.47;;;1.10;60.60;;;;;;5088984;27;20044;-65
2024/01/20 00:37:29;;;;;;;12.52;5.93;;;1.10;60.80;;;;;;5083876;28;20139;-63
2024/01/20 00:39:57;;;;;;;1.08;1.08;;;1.10;60.80;;;;;;5069489;28;20064;-64
2024/01/20 00:42:28;;;;;;;4.32;1.58;;;1.10;60.80;;;;;;5068900;28;20139;-63
2024/01/20 00:44:56;;;;;;;6.43;2.35;;;1.10;60.90;;;;;;5071698;28;20052;-64
2024/01/20 00:47:25;;;;;;;17.35;4.38;;;1.10;61.00;;;;;;5065194;28;20490;-64
2024/01/20 00:49:53;;;;;;;12.23;2.83;;;1.10;60.90;;;;;;5075764;28;20143;-63
2024/01/20 00:52:22;;;;;;;1.48;1.38;;;1.10;60.90;;;;;;5067866;28;20067;-64
2024/01/20 00:54:50;;;;;;;1.25;1.25;;;1.10;60.80;;;;;;5078770;28;20052;-64
2024/01/20 00:57:19;;;;;;;2.30;1.60;;;1.10;61.10;;;;;;5067114;28;20484;-65
2024/01/20 00:59:49;;;;;;;13.93;3.42;;;1.10;61.70;;;;;;5073057;28;20130;-64
2024/01/20 01:02:18;;;;;;;13.05;4.03;;;1.10;60.80;;;;;;5073560;27;20051;-63
2024/01/20 01:04:47;;;;;;;1.75;1.65;;;1.10;60.80;;;;;;5088158;28;20048;-65
2024/01/20 01:07:15;;;;;;;13.77;3.55;;;1.10;60.80;;;;;;5071839;28;20534;-63
2024/01/20 01:09:44;;;;;;;4.43;2.10;;;1.00;60.70;;;;;;5069930;28;20051;-64
2024/01/20 01:12:12;;;;;;;1.38;1.27;;;1.00;60.80;;;;;;5064810;28;20106;-63
2024/01/20 01:14:40;;;;;;;4.75;1.95;;;1.00;60.80;;;;;;5060899;28;20056;-63
2024/01/20 01:17:10;;;;;;;2.10;1.98;;;1.10;60.80;;;;;;5076274;28;20056;-66
2024/01/20 01:19:39;;;;;;;6.13;1.58;;;1.00;60.80;;;;;;5072444;28;20063;-61
2024/01/20 01:22:07;;;;;;;2.30;2.10;;;1.00;60.70;;;;;;5067689;28;20074;-64
2024/01/20 01:24:35;;;;;;;1.02;1.02;;;1.00;60.70;;;;;;5063772;28;20056;-64
2024/01/20 01:27:04;;;;;;;1.60;1.50;;;1.00;60.70;;;;;;5069209;28;20067;-63
2024/01/20 01:29:32;;;;;;;3.97;2.15;;;1.00;60.70;;;;;;5061968;28;20567;-64
2024/01/20 01:32:02;;;;;;;1.42;1.33;;;1.00;60.70;;;;;;5063499;28;20410;-63
2024/01/20 01:34:31;;;;;;;1.40;1.33;;;1.00;60.80;;;;;;5064691;28;20078;-64
2024/01/20 01:36:59;;;;;;;1.48;1.10;;;1.00;60.80;;;;;;5069209;28;20335;-65
2024/01/20 01:39:27;;;;;;;3.45;1.98;;;1.00;60.80;;;;;;5072861;28;20060;-65
2024/01/20 01:41:55;;;;;;;5.00;1.88;;;1.00;60.70;;;;;;5071005;28;20056;-64
2024/01/20 01:44:24;;;;;;;1.60;1.50;;;1.00;60.70;;;;;;5072624;28;20048;-65
2024/01/20 01:46:52;;;;;;;2.72;1.75;;;0.90;60.70;;;;;;5073842;28;20067;-64
2024/01/20 01:49:21;;;;;;;1.85;1.75;;;0.90;60.70;;;;;;5078576;28;20474;-64
2024/01/20 01:51:52;;;;;;;8.85;1.70;;;0.90;60.70;;;;;;5073565;28;20106;-65
2024/01/20 01:54:21;;;;;;;9.80;4.47;;;0.90;60.80;;;;;;5071039;28;20130;-63
2024/01/20 01:56:52;;;;;;;1.98;1.80;;;0.90;60.80;;;;;;5074303;28;20054;-64
2024/01/20 01:59:21;;;;;;;5.88;2.30;;;0.90;60.80;;;;;;5094100;28;20052;-64
2024/01/20 02:01:49;;;;;;;2.60;1.60;;;0.90;60.80;;;;;;5075149;28;20207;-63
2024/01/20 02:04:18;;;;;;;3.85;1.40;;;0.80;60.70;;;;;;5061313;28;20835;-63
2024/01/20 02:06:46;;;;;;;2.55;2.35;;;0.80;60.70;;;;;;5076320;28;20104;-64
2024/01/20 02:09:17;;;;;;;1.48;1.38;;;0.80;60.70;;;;;;5073640;28;20098;-64
2024/01/20 02:11:47;;;;;;;2.05;1.95;;;0.80;60.50;;;;;;5076065;28;20059;-64
2024/01/20 02:14:15;;;;;;;2.92;1.92;;;0.80;60.40;;;;;;5064245;28;20055;-64
2024/01/20 02:16:43;;;;;;;5.90;2.67;;;0.80;60.40;;;;;;5068167;28;20059;-62
2024/01/20 02:19:11;;;;;;;28.58;5.45;;;0.70;60.50;;;;;;5075528;28;20591;-67
2024/01/20 02:21:41;;;;;;;2.58;1.67;;;0.70;60.50;;;;;;5076141;28;20060;-63
2024/01/20 02:24:12;;;;;;;4.18;1.92;;;0.70;60.30;;;;;;5064061;28;20110;-63
2024/01/20 02:26:41;;;;;;;3.00;2.15;;;0.60;60.30;;;;;;5080915;28;20102;-63
2024/01/20 02:29:10;;;;;;;3.70;1.65;;;0.60;60.20;;;;;;5078416;28;20044;-64
2024/01/20 02:31:39;;;;;;;1.30;1.20;;;0.50;60.10;;;;;;5074880;27;20064;-61
2024/01/20 02:34:07;;;;;;;2.08;1.77;;;0.50;60.30;;;;;;5068717;28;20162;-64
2024/01/20 02:36:36;;;;;;;2.35;2.15;;;0.50;60.30;;;;;;5071331;28;20055;-64
2024/01/20 02:39:04;;;;;;;19.02;5.93;;;0.50;60.40;;;;;;5083788;27;20053;-62
2024/01/20 02:41:34;;;;;;;1.85;1.75;;;0.40;60.40;;;;;;5077378;28;20143;-63
2024/01/20 02:44:02;;;;;;;6.60;2.88;;;0.40;60.50;;;;;;5065449;28;20060;-63
2024/01/20 02:46:30;;;;;;;10.30;3.75;;;0.40;60.50;;;;;;5085595;28;20052;-63
2024/01/20 02:48:58;;;;;;;2.90;1.85;;;0.40;60.80;;;;;;5068049;28;20064;-64
2024/01/20 02:51:27;;;;;;;3.78;2.78;;;0.40;60.40;;;;;;5074514;28;20159;-64
2024/01/20 02:53:57;;;;;;;6.57;2.50;;;0.40;60.40;;;;;;5072829;28;20070;-64
2024/01/20 02:56:25;;;;;;;3.88;1.98;;;0.40;60.50;;;;;;5079787;28;20862;-64
2024/01/20 02:58:55;;;;;;;5.18;2.67;;;0.40;60.60;;;;;;5077863;28;20059;-63
2024/01/20 03:01:23;;;;;;;3.95;2.67;;;0.40;60.50;;;;;;5073111;28;20072;-65
2024/01/20 03:03:52;;;;;;;2.53;1.98;;;0.30;60.50;;;;;;5072019;28;20063;-63
2024/01/20 03:06:20;;;;;;;1.80;1.70;;;0.40;60.60;;;;;;5071197;28;20048;-65
2024/01/20 03:08:49;;;;;;;4.82;2.75;;;0.40;60.70;;;;;;5066326;28;20059;-64
2024/01/20 03:11:18;;;;;;;2.25;1.90;;;0.40;60.80;;;;;;5078011;28;20064;-62
2024/01/20 03:13:46;;;;;;;4.07;3.67;;;0.40;60.80;;;;;;5068987;28;20062;-63
2024/01/20 03:16:16;;;;;;;2.15;1.70;;;0.50;60.80;;;;;;5060635;28;20401;-62
2024/01/20 03:18:44;;;;;;;1.40;1.30;;;0.50;60.90;;;;;;5077270;28;20118;-64
2024/01/20 03:21:12;;;;;;;4.55;2.55;;;0.50;60.80;;;;;;5073707;28;20063;-64
2024/01/20 03:23:42;;;;;;;1.77;1.48;;;0.60;60.80;;;;;;5073896;28;20130;-63
2024/01/20 03:26:11;;;;;;;1.77;1.58;;;0.60;60.80;;;;;;5069672;28;20149;-63
2024/01/20 03:28:40;;;;;;;3.95;2.10;;;0.70;60.80;;;;;;5066841;28;20102;-64
2024/01/20 03:31:09;;;;;;;1.27;1.27;;;0.60;60.60;;;;;;5068511;28;20130;-64
2024/01/20 03:33:38;;;;;;;2.88;1.42;;;0.60;60.60;;;;;;5089480;27;20051;-64
2024/01/20 03:36:07;;;;;;;2.25;2.05;;;0.70;60.50;;;;;;5062876;28;20052;-65
2024/01/20 03:38:36;;;;;;;2.75;1.65;;;0.70;60.50;;;;;;5075832;28;20079;-63
2024/01/20 03:41:04;;;;;;;1.80;1.40;;;0.70;60.40;;;;;;5103738;27;20111;-64
2024/01/20 03:43:32;;;;;;;1.27;1.20;;;0.70;60.40;;;;;;5080321;27;20060;-65
2024/01/20 03:46:01;;;;;;;4.13;2.10;;;0.70;60.40;;;;;;5059492;28;20045;-63
2024/01/20 03:48:29;;;;;;;0.90;0.90;;;0.70;60.40;;;;;;5074024;28;20066;-64
2024/01/20 03:50:59;;;;;;;1.27;1.27;;;0.70;60.40;;;;;;5074177;28;20090;-61
2024/01/20 03:53:27;;;;;;;1.05;1.05;;;0.70;60.40;;;;;;5075262;28;20067;-64
2024/01/20 03:55:56;;;;;;;1.35;1.25;;;0.70;60.30;;;;;;5076593;28;20052;-62
2024/01/20 03:58:24;;;;;;;7.22;3.38;;;0.80;61.00;;;;;;5057016;28;20091;-62
2024/01/20 04:00:52;;;;;;;2.30;2.10;;;0.80;60.20;;;;;;5072493;28;20066;-62
2024/01/20 04:03:21;;;;;;;3.85;2.38;;;0.80;60.10;;;;;;5081273;27;20052;-62
2024/01/20 04:05:49;;;;;;;4.40;3.03;;;0.80;60.10;;;;;;5070957;28;20063;-63
2024/01/20 04:08:19;;;;;;;10.00;2.42;;;0.80;60.00;;;;;;5074206;28;20056;-67
2024/01/20 04:10:47;;;;;;;3.90;2.47;;;0.70;60.00;;;;;;5076986;28;20379;-62
2024/01/20 04:13:16;;;;;;;6.22;2.10;;;0.70;59.90;;;;;;5076580;28;20683;-62
2024/01/20 04:15:44;;;;;;;1.83;1.70;;;0.70;59.90;;;;;;5063020;28;20056;-67
2024/01/20 04:18:13;;;;;;;2.00;1.88;;;0.70;59.90;;;;;;5067626;28;20403;-63
2024/01/20 04:20:42;;;;;;;2.15;2.00;;;0.70;60.00;;;;;;5076640;28;20085;-62
2024/01/20 04:23:11;;;;;;;2.33;1.75;;;0.60;60.00;;;;;;5074797;28;20142;-64
2024/01/20 04:25:40;;;;;;;2.10;1.80;;;0.60;60.00;;;;;;5071145;27;20063;-63
2024/01/20 04:28:09;;;;;;;3.40;3.03;;;0.60;59.90;;;;;;5071062;28;20052;-62
2024/01/20 04:30:37;;;;;;;1.73;1.63;;;0.60;59.90;;;;;;5071782;27;20147;-62
2024/01/20 04:33:06;;;;;;;5.55;1.77;;;0.60;59.90;;;;;;5078489;28;20059;-62
2024/01/20 04:35:34;;;;;;;2.80;1.75;;;0.60;59.90;;;;;;5086405;28;20059;-61
2024/01/20 04:38:03;;;;;;;1.95;1.30;;;0.60;59.90;;;;;;5078357;28;20079;-61
2024/01/20 04:40:31;;;;;;;2.33;2.13;;;0.60;60.00;;;;;;5073657;28;20505;-61
2024/01/20 04:43:01;;;;;;;3.75;2.55;;;0.60;59.90;;;;;;5069153;28;20064;-62
2024/01/20 04:45:29;;;;;;;10.38;2.90;;;0.60;59.90;;;;;;5076700;28;20083;-62
2024/01/20 04:47:58;;;;;;;5.57;2.15;;;0.60;59.90;;;;;;5072310;28;20137;-63
2024/01/20 04:50:26;;;;;;;1.65;1.55;;;0.60;59.80;;;;;;5067057;28;20633;-63
2024/01/20 04:52:55;;;;;;;6.80;2.78;;;0.50;59.70;;;;;;5069739;28;20064;-64
2024/01/20 04:55:23;;;;;;;6.13;2.15;;;0.50;59.70;;;;;;5069452;28;20056;-63
2024/01/20 04:57:51;;;;;;;1.98;1.52;;;0.50;59.80;;;;;;5070423;28;20055;-62
2024/01/20 05:00:22;;;;;;;18.00;3.95;;;0.50;59.80;;;;;;5069979;28;20060;-63
2024/01/20 05:02:50;;;;;;;4.93;1.58;;;0.50;59.80;;;;;;5076333;28;20139;-64
2024/01/20 05:05:18;;;;;;;5.40;3.20;;;0.40;59.70;;;;;;5074058;28;20048;-62
2024/01/20 05:07:47;;;;;;;27.83;2.08;;;0.40;59.70;;;;;;5072898;28;20099;-64
2024/01/20 05:10:15;;;;;;;2.40;1.25;;;0.30;59.70;;;;;;5066607;28;20052;-62
2024/01/20 05:12:43;;;;;;;1.67;1.58;;;0.30;60.10;;;;;;5066183;28;20059;-63
2024/01/20 05:15:12;;;;;;;1.45;1.30;;;0.20;59.60;;;;;;5071362;28;20061;-64
2024/01/20 05:17:42;;;;;;;2.55;2.35;;;0.10;59.60;;;;;;5071809;28;20040;-64
2024/01/20 05:20:14;;;;;;;1.73;1.63;;;0.00;59.60;;;;;;5072733;28;20102;-63
2024/01/20 05:22:42;;;;;;;3.85;1.65;;;-0.10;59.70;;;;;;5070189;28;20048;-62
2024/01/20 05:25:11;;;;;;;0.90;0.90;;;-0.10;59.70;;;;;;5065624;28;20056;-63
2024/01/20 05:27:39;;;;;;;0.80;0.80;;;-0.10;60.00;;;;;;5087439;28;20052;-63
2024/01/20 05:30:11;;;;;;;1.83;1.73;;;-0.20;60.40;;;;;;5066156;28;20051;-65
2024/01/20 05:32:42;;;;;;;2.47;1.60;;;-0.20;59.70;;;;;;5066295;28;20052;-59
2024/01/20 05:35:11;;;;;;;1.45;1.38;;;-0.20;59.90;;;;;;5065745;28;20505;-63
2024/01/20 05:37:39;;;;;;;2.05;1.85;;;-0.20;60.00;;;;;;5069262;28;20063;-64
2024/01/20 05:40:09;;;;;;;2.17;2.08;;;-0.20;60.00;;;;;;5070681;28;20521;-63
2024/01/20 05:42:38;;;;;;;54.17;2.65;;;-0.20;60.10;;;;;;5073873;28;20059;-61
2024/01/20 05:45:09;;;;;;;1.10;1.10;;;-0.10;60.20;;;;;;5081885;27;20128;-65
2024/01/20 05:47:38;;;;;;;13.00;4.25;;;-0.10;60.20;;;;;;5073885;28;20498;-63
2024/01/20 05:50:09;;;;;;;1.10;1.08;;;0.00;60.20;;;;;;5086215;28;20053;-62
2024/01/20 05:52:37;;;;;;;1.52;1.45;;;0.00;60.20;;;;;;5087943;28;20547;-64
2024/01/20 05:55:06;;;;;;;1.13;1.13;;;0.00;60.10;;;;;;5079989;27;20079;-65
2024/01/20 05:57:35;;;;;;;6.50;1.75;;;0.00;60.00;;;;;;5080486;28;20082;-64
2024/01/20 06:00:04;;;;;;;1.05;1.05;;;0.00;60.00;;;;;;5085656;28;20078;-73
2024/01/20 06:02:32;;;;;;;2.30;2.10;;;0.10;60.10;;;;;;5077106;28;20058;-64
2024/01/20 06:05:01;;;;;;;8.98;2.58;;;0.10;59.90;;;;;;5075801;28;20036;-64
2024/01/20 06:07:30;;;;;;;2.08;1.85;;;0.10;59.90;;;;;;5076678;28;20494;-63
2024/01/20 06:09:59;;;;;;;2.13;1.98;;;0.10;59.90;;;;;;5074526;28;20063;-63
2024/01/20 06:12:28;;;;;;;3.78;1.63;;;0.10;59.80;;;;;;5071964;28;20059;-62
2024/01/20 06:14:56;;;;;;;3.22;2.13;;;0.10;59.70;;;;;;5070601;28;20443;-64
2024/01/20 06:17:24;;;;;;;21.52;2.42;;;0.10;60.60;;;;;;5075753;28;20056;-55
2024/01/20 06:19:53;;;;;;;1.10;1.10;;;0.10;59.90;;;;;;5082001;28;20557;-54
2024/01/20 06:22:21;;;;;;;4.00;2.33;;;0.10;59.90;;;;;;5069392;28;20143;-62
2024/01/20 06:24:51;;;;;;;2.88;1.83;;;0.10;59.90;;;;;;5066802;28;20079;-56
2024/01/20 06:27:20;;;;;;;1.73;1.63;;;0.10;59.80;;;;;;5088404;28;20105;-56
2024/01/20 06:29:49;;;;;;;2.17;1.92;;;0.10;59.70;;;;;;5077533;28;20060;-59
2024/01/20 06:32:18;;;;;;;8.77;3.47;;;0.10;59.70;;;;;;5075825;28;20056;-53
2024/01/20 06:34:49;;;;;;;15.00;2.25;;;0.00;59.60;;;;;;5072031;28;20064;-53
2024/01/20 06:37:18;;;;;;;1.23;1.20;;;0.00;59.70;;;;;;5070365;28;20058;-60
2024/01/20 06:39:46;;;;;;;1.73;1.60;;;-0.20;60.20;;;;;;5091047;27;21365;-55
2024/01/20 06:42:16;;;;;;;1.20;1.20;;;-0.10;59.60;;;;;;5078162;28;20060;-57
2024/01/20 06:44:45;;;;;;;1.52;1.10;;;-0.10;59.70;;;;;;5070896;28;20055;-54
2024/01/20 06:47:14;;;;;;;19.05;3.20;;;-0.10;59.70;;;;;;5082956;28;20060;-53
2024/01/20 06:49:42;;;;;;;4.15;2.45;;;-0.10;59.70;;;;;;5080323;28;20050;-55
2024/01/20 06:52:11;;;;;;;9.18;2.08;;;-0.20;59.70;;;;;;5083960;28;20047;-58
2024/01/20 06:54:39;;;;;;;1.42;1.33;;;-0.20;59.70;;;;;;5079526;28;20067;-53
2024/01/20 06:57:09;;;;;;;1.83;1.67;;;-0.10;59.90;;;;;;5068580;27;20121;-54
2024/01/20 06:59:39;;;;;;;2.75;2.35;;;-0.10;59.90;;;;;;5069842;27;20147;-54
2024/01/20 07:02:07;;;;;;;1.75;1.65;;;-0.10;59.80;;;;;;5075964;28;20060;-58
2024/01/20 07:04:36;;;;;;;1.10;1.10;;;0.00;60.60;;;;;;5071992;28;20503;-58
2024/01/20 07:07:04;;;;;;;1.33;1.25;;;0.00;59.80;;;;;;5073349;28;20915;-61
2024/01/20 07:09:32;;;;;;;3.97;3.05;;;0.00;59.80;;;;;;5068246;28;20044;-59
2024/01/20 07:12:01;;;;;;;5.82;3.05;;;0.10;59.80;;;;;;5069920;28;20079;-54
2024/01/20 07:14:29;;;;;;;5.55;3.05;;;0.10;60.20;;;;;;5071657;28;20066;-62
2024/01/20 07:16:59;;;;;;;2.05;1.75;;;0.30;60.70;;;;;;5063330;28;20063;-62
2024/01/20 07:19:27;;;;;;;1.38;1.30;;;0.40;60.10;;;;;;5072290;28;20158;-62
2024/01/20 07:21:56;;;;;;;1.55;1.45;;;0.50;59.70;;;;;;5092901;27;20685;-68
2024/01/20 07:24:24;;;;;;;3.85;2.90;;;0.40;59.80;;;;;;5082488;28;20166;-61
2024/01/20 07:26:52;;;;;;;1.65;1.55;;;0.40;59.50;;;;;;5077017;28;20047;-58
2024/01/20 07:29:21;;;;;;;1.85;1.48;;;0.40;59.40;;;;;;5072930;28;20149;-61
2024/01/20 07:31:50;;;;;;;5.88;2.28;;;0.40;59.40;;;;;;5082073;28;20039;-63
2024/01/20 07:34:20;;;;;;;6.90;3.28;;;0.40;59.50;;;;;;5078739;27;20060;-62
2024/01/20 07:36:48;;;;;;;1.13;1.10;;;0.30;59.40;;;;;;5071001;27;20051;-61
2024/01/20 07:39:17;;;;;;;3.63;2.60;;;0.30;59.50;;;;;;5081508;28;20067;-64
2024/01/20 07:41:45;;;;;;;4.90;1.50;;;0.30;59.50;;;;;;5080853;27;20580;-61
2024/01/20 07:44:13;;;;;;;7.95;1.40;;;0.30;59.40;;;;;;5076720;28;20497;-58
2024/01/20 07:46:42;;;;;;;1.92;1.83;;;0.30;59.40;;;;;;5077345;27;20056;-57
2024/01/20 07:49:10;;;;;;;6.78;2.50;;;0.30;59.50;;;;;;5075578;28;20044;-60
2024/01/20 07:51:40;;;;;;;4.00;1.88;;;0.30;59.50;;;;;;5078237;28;20047;-61
2024/01/20 07:54:10;;;;;;;1.58;1.48;;;0.40;59.60;;;;;;5082884;28;20056;-61
2024/01/20 07:56:39;;;;;;;1.55;1.45;;;0.40;59.80;;;;;;5075389;27;20131;-62
2024/01/20 07:59:07;;;;;;;2.45;1.20;;;0.40;59.50;;;;;;5090461;27;20040;-61
2024/01/20 08:01:35;;;;;;;1.42;1.35;;;0.40;59.30;;;;;;5070615;28;20593;-62
2024/01/20 08:04:04;;;;;;;7.18;4.40;;;0.50;59.50;;;;;;5072052;27;20144;-60
2024/01/20 08:06:32;;;;;;;3.78;2.70;;;0.50;59.40;;;;;;5085394;27;20048;-60
2024/01/20 08:09:02;;;;;;;6.43;2.03;;;0.60;59.40;;;;;;5070436;27;20533;-63
2024/01/20 08:11:31;;;;;;;1.65;1.13;;;0.60;59.40;;;;;;5096053;27;20063;-58
2024/01/20 08:13:59;;;;;;;2.25;1.50;;;0.70;59.40;;;;;;5076782;28;20130;-61
2024/01/20 08:16:28;;;;;;;1.38;1.20;;;0.70;59.40;;;;;;5081315;28;20055;-61
2024/01/20 08:18:57;;;;;;;1.13;1.13;;;0.70;59.40;;;;;;5069786;27;20160;-61
2024/01/20 08:21:25;;;;;;;8.57;2.60;;;0.80;59.40;;;;;;5083983;27;20417;-63
2024/01/20 08:23:54;;;;;;;5.05;2.42;;;0.80;59.40;;;;;;5073754;28;20472;-62
2024/01/20 08:26:24;;;;;;;2.85;2.55;;;0.80;59.20;;;;;;5071775;27;20055;-61
2024/01/20 08:28:52;;;;;;;3.53;1.35;;;0.90;59.20;;;;;;5080969;27;20420;-61
2024/01/20 08:31:20;;;;;;;2.70;1.95;;;0.90;59.20;;;;;;5087967;27;20089;-60
2024/01/20 08:33:49;;;;;;;1.77;1.52;;;1.00;59.20;;;;;;5071998;28;20124;-58
2024/01/20 08:36:17;;;;;;;1.52;1.42;;;1.00;59.20;;;;;;5074567;28;20047;-60
2024/01/20 08:38:46;;;;;;;1.15;1.15;;;1.10;59.10;;;;;;5070435;28;20052;-60
2024/01/20 08:41:14;;;;;;;3.60;1.80;;;1.10;59.30;;;;;;5071795;28;20044;-62
2024/01/20 08:43:44;;;;;;;1.63;1.27;;;1.20;59.20;;;;;;5076572;28;20051;-63
2024/01/20 08:46:13;;;;;;;1.33;1.33;;;1.30;59.30;;;;;;5070168;28;20064;-63
2024/01/20 08:48:42;;;;;;;5.15;2.17;;;1.50;59.40;;;;;;5093670;27;20056;-64
2024/01/20 08:51:10;;;;;;;2.72;1.27;;;1.60;59.70;;;;;;5070726;28;20072;-63
2024/01/20 08:53:39;;;;;;;0.90;0.90;;;1.80;59.70;;;;;;5068491;28;20068;-63
2024/01/20 08:56:08;;;;;;;3.33;2.50;;;2.10;59.90;;;;;;5074191;28;20060;-67
2024/01/20 08:58:36;;;;;;;0.70;0.70;;;2.30;59.80;;;;;;5075924;28;20113;-66
2024/01/20 09:01:07;;;;;;;4.43;2.83;;;2.60;60.10;;;;;;5067400;28;20049;-67
2024/01/20 09:03:35;;;;;;;15.52;3.33;;;2.80;60.10;;;;;;5074967;28;20063;-60
2024/01/20 09:06:05;;;;;;;1.25;1.20;;;3.00;59.80;;;;;;5072758;28;20080;-58
2024/01/20 09:08:33;;;;;;;2.30;1.88;;;3.20;59.90;;;;;;5073956;28;20402;-61
2024/01/20 09:11:01;;;;;;;11.07;2.45;;;3.40;60.00;;;;;;5065980;28;20052;-60
2024/01/20 09:13:30;;;;;;;15.48;2.08;;;3.50;59.90;;;;;;5076940;28;20056;-62
2024/01/20 09:15:58;;;;;;;24.05;3.72;;;3.70;59.80;;;;;;5076664;28;20056;-61
2024/01/20 09:18:28;;;;;;;2.67;1.80;;;3.80;59.80;;;;;;5078359;28;20075;-62
2024/01/20 09:20:56;;;;;;;9.98;2.03;;;4.00;59.80;;;;;;5069806;28;20055;-59
2024/01/20 09:23:24;;;;;;;4.38;2.78;;;4.20;59.80;;;;;;5075650;28;20125;-61
2024/01/20 09:25:53;;;;;;;1.58;1.48;;;4.40;59.40;;;;;;5092940;28;20047;-62
2024/01/20 09:28:21;;;;;;;4.97;1.85;;;4.50;58.80;;;;;;5079115;28;20164;-61
2024/01/20 09:30:49;;;;;;;9.98;1.42;;;4.70;58.80;;;;;;5064394;27;20055;-65
2024/01/20 09:33:17;;;;;;;5.20;1.95;;;4.80;59.00;;;;;;5093630;28;20044;-65
2024/01/20 09:35:47;;;;;;;9.20;1.48;;;4.90;59.50;;;;;;5071805;28;20483;-62
2024/01/20 09:38:16;;;;;;;5.50;2.28;;;5.10;59.40;;;;;;5078128;28;20237;-62
2024/01/20 09:40:45;;;;;;;5.15;1.30;;;5.30;59.50;;;;;;5078707;28;20044;-66
2024/01/20 09:43:14;;;;;;;6.57;1.63;;;5.60;59.30;;;;;;5078871;28;20056;-61
2024/01/20 09:45:42;;;;;;;5.40;3.33;;;5.70;58.30;;;;;;5077523;28;20055;-62
2024/01/20 09:48:11;;;;;;;10.43;1.95;;;6.00;59.00;;;;;;5074851;28;20059;-61
2024/01/20 09:50:40;;;;;;;11.73;2.05;;;6.20;59.10;;;;;;5081672;28;20071;-61
2024/01/20 09:53:14;;;;;;;4.43;1.75;;;6.60;58.80;;;;;;5072895;28;20044;-61
2024/01/20 09:55:43;;;;;;;4.43;2.13;;;6.90;57.90;;;;;;5073091;28;20052;-62
2024/01/20 09:58:12;;;;;;;8.60;2.03;;;7.30;57.30;;;;;;5079239;28;20059;-63
2024/01/20 10:00:42;;;;;;;4.50;2.13;;;7.80;57.10;;;;;;5081129;28;20056;-62
2024/01/20 10:03:12;;;;;;;16.90;2.60;;;8.30;56.20;;;;;;5068729;28;20039;-62
2024/01/20 10:05:40;;;;;;;5.55;2.55;;;8.80;55.80;;;;;;5091868;28;20044;-61
2024/01/20 10:08:11;;;;;;;24.73;2.22;;;9.40;55.60;;;;;;5081679;27;20055;-60
2024/01/20 10:10:39;;;;;;;15.02;3.03;;;9.90;54.50;;;;;;5068785;28;20101;-63
2024/01/20 10:13:08;;;;;;;6.03;3.58;;;10.40;54.00;;;;;;5069023;27;20063;-63
2024/01/20 10:15:36;;;;;;;11.13;2.90;;;10.90;53.70;;;;;;5070428;28;20601;-63
2024/01/20 10:18:10;;;;;;;7.57;2.28;;;11.30;53.40;;;;;;5078207;28;20361;-63
2024/01/20 10:20:39;;;;;;;5.72;1.83;;;11.80;52.80;;;;;;5071504;28;20064;-63
2024/01/20 10:23:08;;;;;;;44.42;4.93;;;12.10;52.20;;;;;;5084308;28;20052;-63
2024/01/20 10:25:38;;;;;;;14.23;3.75;;;12.50;52.10;;;;;;5088555;28;20056;-63
2024/01/20 10:28:07;;;;;;;7.47;2.33;;;12.80;51.40;;;;;;5078190;27;20052;-63
2024/01/20 10:30:38;;;;;;;5.10;2.17;;;13.10;51.20;;;;;;5070356;28;20047;-63
2024/01/20 10:33:09;;;;;;;3.75;1.70;;;13.30;50.70;;;;;;5088201;27;20055;-64
2024/01/20 10:35:39;;;;;;;7.13;1.67;;;13.70;50.80;;;;;;5072184;28;20064;-64
2024/01/20 10:38:11;;;;;;;2.00;1.80;;;14.00;50.20;;;;;;5072464;28;20131;-63
2024/01/20 10:40:42;;;;;;;17.77;2.35;;;13.90;48.70;;;;;;5076749;28;20072;-63
2024/01/20 10:43:14;;;;;;;21.67;3.20;;;13.70;49.10;;;;;;5064662;28;20118;-63
2024/01/20 10:45:47;;;;;;;5.15;2.22;;;13.90;49.60;;;;;;5090642;27;20109;-64
2024/01/20 10:48:18;;;;;;;31.38;3.40;;;14.10;49.40;;;;;;5069967;28;20052;-62
2024/01/20 10:50:53;;;;;;;14.73;4.22;;;14.30;49.00;;;;;;5077250;27;20153;-67
2024/01/20 10:53:22;;;;;;;28.55;6.10;;;14.40;48.50;;;;;;5080414;28;20109;-62
2024/01/20 10:55:52;;;;;;;18.63;5.03;;;14.20;47.90;;;;;;5077052;27;20634;-64
2024/01/20 10:58:24;;;;;;;13.00;4.57;;;13.90;47.80;;;;;;5082439;27;20048;-63
2024/01/20 11:00:53;;;;;;;8.05;3.22;;;13.60;47.50;;;;;;5071058;28;21610;-63
2024/01/20 11:03:22;;;;;;;6.80;1.77;;;13.30;47.70;;;;;;5080574;27;20053;-62
2024/01/20 11:05:51;;;;;;;49.95;4.10;;;13.10;47.90;;;;;;5081354;28;20063;-63
2024/01/20 11:08:25;;;;;;;14.75;3.63;;;12.80;47.60;;;;;;5090007;27;20059;-62
2024/01/20 11:10:55;;;;;;;9.40;3.13;;;12.60;48.00;;;;;;5070080;28;20039;-62
2024/01/20 11:13:27;;;;;;;19.85;3.60;;;12.20;47.80;;;;;;5088011;28;20100;-63
2024/01/20 11:15:57;;;;;;;24.75;3.95;;;11.90;48.00;;;;;;5088281;27;20097;-62
2024/01/20 11:18:27;;;;;;;14.82;3.70;;;11.60;48.40;;;;;;5083377;28;20048;-65
2024/01/20 11:20:59;;;;;;;26.35;3.90;;;11.20;48.50;;;;;;5075747;27;20132;-64
2024/01/20 11:23:29;;;;;;;18.85;4.47;;;10.70;48.70;;;;;;5072919;28;20060;-63
2024/01/20 11:26:10;;;;;;;3.22;1.95;;;10.20;49.00;;;;;;5065176;28;20061;-63
2024/01/20 11:28:40;;;;;;;3.40;2.50;;;9.70;49.40;;;;;;5069651;28;20056;-65
2024/01/20 11:31:18;;;;;;;14.13;2.30;;;9.10;49.40;;;;;;5064149;28;20056;-65
2024/01/20 11:33:50;;;;;;;14.98;4.60;;;8.40;49.80;;;;;;5073393;28;20056;-64
2024/01/20 11:36:22;;;;;;;;;;;7.80;50.20;;;;;;5078942;28;20446;-64
2024/01/20 11:38:52;;;;;;;6.03;2.85;;;7.20;51.50;;;;;;5064501;28;19924;-61
2024/01/20 11:41:22;;;;;;;7.00;2.97;;;6.80;51.90;;;;;;5077429;27;20059;-63
2024/01/20 11:43:50;;;;;;;2.80;1.13;;;6.50;52.50;;;;;;5079273;28;20055;-63
2024/01/20 11:46:19;;;;;;;15.18;2.83;;;6.30;52.80;;;;;;5092671;27;21277;-63
2024/01/20 11:48:48;;;;;;;3.95;2.72;;;6.10;53.10;;;;;;5068601;28;20064;-63
2024/01/20 11:51:17;;;;;;;28.52;2.78;;;5.90;53.40;;;;;;5085580;27;20194;-64
2024/01/20 11:53:45;;;;;;;11.10;2.00;;;5.80;53.50;;;;;;5083627;27;20147;-65
2024/01/20 11:56:16;;;;;;;23.20;2.13;;;5.80;53.70;;;;;;5071127;28;20553;-63
2024/01/20 11:58:47;;;;;;;2.42;1.83;;;5.70;53.90;;;;;;5066760;28;20155;-63
2024/01/20 12:01:17;;;;;;;24.58;1.85;;;5.70;53.90;;;;;;5070926;28;20078;-62
2024/01/20 12:03:45;;;;;;;4.05;1.58;;;5.60;53.80;;;;;;5089958;28;20353;-63
2024/01/20 12:06:14;;;;;;;3.60;2.13;;;5.60;53.80;;;;;;5076529;28;20050;-64
2024/01/20 12:08:45;;;;;;;33.42;3.47;;;5.60;54.00;;;;;;5077066;28;20106;-63
2024/01/20 12:11:20;;;;;;;4.55;1.92;;;5.60;54.80;;;;;;5068758;28;20060;-65
2024/01/20 12:13:50;;;;;;;;;;;5.70;54.20;;;;;;5071340;28;20535;-63
2024/01/20 12:16:19;;;;;;;6.90;3.28;;;5.70;54.60;;;;;;5073713;28;19969;-63
2024/01/20 12:18:47;;;;;;;22.70;3.40;;;5.80;54.60;;;;;;5061018;28;20056;-63
2024/01/20 12:21:17;;;;;;;15.70;1.80;;;5.80;54.50;;;;;;5072832;28;20151;-64
2024/01/20 12:23:46;;;;;;;29.48;3.10;;;5.90;54.50;;;;;;5075485;28;20052;-66
2024/01/20 12:26:16;;;;;;;1.75;1.55;;;5.90;54.30;;;;;;5075288;28;20071;-66
2024/01/20 12:28:50;;;;;;;1.02;1.02;;;6.00;54.30;;;;;;5070772;28;20056;-64
2024/01/20 12:31:21;;;;;;;1.67;1.35;;;6.10;54.30;;;;;;5068266;28;20044;-67
2024/01/20 12:33:50;;;;;;;12.13;1.48;;;6.10;54.20;;;;;;5065179;27;20121;-66
2024/01/20 12:36:19;;;;;;;2.30;1.63;;;6.10;54.10;;;;;;5091542;27;20052;-65
2024/01/20 12:38:49;;;;;;;14.68;2.25;;;6.20;54.30;;;;;;5068729;28;20043;-69
2024/01/20 12:41:17;;;;;;;3.50;1.73;;;6.20;54.30;;;;;;5073064;28;20105;-65
2024/01/20 12:43:48;;;;;;;0.80;0.80;;;6.40;54.70;;;;;;5082754;28;20048;-67
2024/01/20 12:46:17;;;;;;;2.15;1.35;;;6.40;54.30;;;;;;5093085;27;20058;-66
2024/01/20 12:48:47;;;;;;;3.58;2.03;;;6.40;54.10;;;;;;5076808;28;20051;-67
2024/01/20 12:51:16;;;;;;;3.95;2.10;;;6.50;54.10;;;;;;5079023;27;20104;-65
2024/01/20 12:53:44;;;;;;;8.15;2.33;;;6.50;54.20;;;;;;5070538;28;20493;-65
2024/01/20 12:56:13;;;;;;;2.03;1.33;;;6.60;54.00;;;;;;5072471;28;20542;-66
2024/01/20 12:58:41;;;;;;;37.42;2.75;;;6.60;54.00;;;;;;5075332;28;20691;-62
2024/01/20 13:01:10;;;;;;;3.88;1.10;;;6.60;54.00;;;;;;5067966;28;20767;-64
2024/01/20 13:03:38;;;;;;;9.60;2.50;;;6.70;54.10;;;;;;5078806;28;20083;-65